Terminal Aerodrome Forecast
Issued by NWS Memphis, TN

Home | Current Version | Previous Version | Text Only | Print | Product List | Glossary On
Versions: 1 2 3 4 5 6 7 8 9 10 11 12 13 14 15 16
236
FTUS44 KMEG 251721
TAFJBR
TAF
KJBR 251721Z 2518/2618 19017G27KT P6SM VCSH BKN020 BKN050
      TEMPO 2518/2520 5SM SHRA BKN020
     FM252000 21015G24KT P6SM BKN050 BKN120
     FM252300 23008KT P6SM BKN040 BKN080
     FM260300 25004KT P6SM SCT080
     FM261500 23010KT P6SM SCT120 BKN250=

USA.gov is the U.S. government's official web portal to all federal, state and local government web resources and services.